Station Historical Data
Daily Summary for February 3, 2017 Units:  English    Metric   Both
« Previous Day
Next Day »
Daily Weekly Monthly Yearly Custom
  High: Low: Average:
Temperature: 48.9 °F 46.0 °F 47.3 °F
Dew Point: 47.5 °F 44.7 °F 45.8 °F
Humidity: 95 % 94 % 94 %
Wind Speed: 27.0 mph 0.0 mph 9 mph
Wind Gust: 34.0 mph - -
Wind:- - South
Pressure: 30.11 in 29.85 in -
Precipitation: 2.19 in    
Historical Graphs
 
 
Tabular Data for February 3, 2017
Time Temperature Dew Point Pressure Wind Wind Speed Wind Gust Humidity Rainfall Rate (Hourly) solar
00:01 48.7 °F 47.0 °F 30.01 in SSE 13.0 mph 16.0 mph 94 % 0.00 in 0.00 W/m2
00:06 48.7 °F 47.0 °F 30.00 in SE 5.0 mph 19.0 mph 94 % 0.00 in 0.00 W/m2
00:11 48.6 °F 47.0 °F 30.00 in SSE 11.0 mph 16.0 mph 94 % 0.00 in 0.00 W/m2
00:16 48.6 °F 47.0 °F 30.00 in Calm   21.0 mph 94 % 0.00 in 0.00 W/m2
00:21 48.6 °F 47.0 °F 29.99 in SSE 13.0 mph 16.0 mph 94 % 0.00 in 0.00 W/m2
00:26 48.6 °F 47.0 °F 29.99 in SE 14.0 mph 17.0 mph 94 % 0.00 in 0.00 W/m2
00:31 48.6 °F 47.0 °F 29.99 in SE 12.0 mph 20.0 mph 94 % 0.00 in 0.00 W/m2
00:36 48.6 °F 47.0 °F 29.99 in SSE 9.0 mph 20.0 mph 94 % 0.00 in 0.00 W/m2
00:41 48.6 °F 47.0 °F 29.99 in SE 8.0 mph 8.0 mph 94 % 0.00 in 0.00 W/m2
00:46 48.7 °F 47.0 °F 29.98 in ESE 8.0 mph 19.0 mph 94 % 0.00 in 0.00 W/m2
00:51 48.7 °F 47.0 °F 29.98 in SE 4.0 mph 21.0 mph 94 % 0.00 in 0.00 W/m2
00:56 48.7 °F 47.0 °F 29.98 in SSE 11.0 mph 17.0 mph 94 % 0.00 in 0.00 W/m2
01:01 48.7 °F 47.0 °F 29.98 in SSE 10.0 mph 16.0 mph 94 % 0.00 in 0.00 W/m2
01:06 48.7 °F 47.0 °F 29.98 in SE 12.0 mph 15.0 mph 94 % 0.00 in 0.00 W/m2
01:11 48.7 °F 47.0 °F 29.98 in SE 4.0 mph 13.0 mph 94 % 0.00 in 0.00 W/m2
01:16 48.6 °F 47.0 °F 29.97 in SSE 6.0 mph 16.0 mph 94 % 0.00 in 0.00 W/m2
01:21 48.6 °F 47.0 °F 29.97 in ESE 11.0 mph 11.0 mph 94 % 0.00 in 0.00 W/m2
01:26 48.5 °F 46.9 °F 29.97 in SE 5.0 mph 15.0 mph 94 % 0.00 in 0.00 W/m2
01:31 48.5 °F 46.9 °F 29.96 in SE 18.0 mph 18.0 mph 94 % 0.00 in 0.00 W/m2
01:36 48.4 °F 46.8 °F 29.96 in SE 7.0 mph 18.0 mph 94 % 0.00 in 0.00 W/m2
01:41 48.4 °F 46.8 °F 29.96 in SSE 8.0 mph 18.0 mph 94 % 0.00 in 0.00 W/m2
01:46 48.4 °F 46.8 °F 29.96 in SSE 12.0 mph 17.0 mph 94 % 0.00 in 0.00 W/m2
01:51 48.4 °F 46.8 °F 29.96 in SSE 6.0 mph 21.0 mph 94 % 0.00 in 0.00 W/m2
01:56 48.3 °F 46.7 °F 29.95 in Calm   18.0 mph 94 % 0.00 in 0.00 W/m2
02:01 48.4 °F 46.8 °F 29.96 in SSE 9.0 mph 20.0 mph 94 % 0.00 in 0.00 W/m2
02:06 48.5 °F 46.9 °F 29.95 in SSE 12.0 mph 18.0 mph 94 % 0.00 in 0.00 W/m2
02:11 48.5 °F 46.9 °F 29.96 in SSE 6.0 mph 17.0 mph 94 % 0.00 in 0.00 W/m2
02:16 48.5 °F 46.9 °F 29.95 in South 9.0 mph 19.0 mph 94 % 0.00 in 0.00 W/m2
02:21 48.5 °F 46.9 °F 29.95 in SSE 13.0 mph 21.0 mph 94 % 0.00 in 0.00 W/m2
02:26 48.6 °F 47.0 °F 29.95 in SE 9.0 mph 16.0 mph 94 % 0.00 in 0.00 W/m2
02:31 48.6 °F 47.0 °F 29.95 in SE 9.0 mph 14.0 mph 94 % 0.00 in 0.00 W/m2
02:36 48.6 °F 47.0 °F 29.94 in South 12.0 mph 20.0 mph 94 % 0.00 in 0.00 W/m2
02:41 48.6 °F 47.0 °F 29.94 in SE 12.0 mph 12.0 mph 94 % 0.00 in 0.00 W/m2
02:46 48.7 °F 47.0 °F 29.94 in Calm     94 % 0.00 in 0.00 W/m2
02:51 48.7 °F 47.0 °F 29.94 in SSE 7.0 mph 17.0 mph 94 % 0.00 in 0.00 W/m2
02:56 48.7 °F 47.0 °F 29.94 in SSE 4.0 mph 17.0 mph 94 % 0.00 in 0.00 W/m2
03:01 48.7 °F 47.0 °F 29.94 in SE 11.0 mph 18.0 mph 94 % 0.00 in 0.00 W/m2
03:06 48.7 °F 47.0 °F 29.94 in Calm   21.0 mph 94 % 0.00 in 0.00 W/m2
03:11 48.7 °F 47.0 °F 29.94 in SE 9.0 mph 23.0 mph 94 % 0.00 in 0.00 W/m2
03:16 48.8 °F 47.2 °F 29.93 in South 12.0 mph 24.0 mph 94 % 0.00 in 0.00 W/m2
03:21 48.8 °F 47.4 °F 29.93 in South 12.0 mph 19.0 mph 95 % 0.00 in 0.00 W/m2
03:26 48.8 °F 47.4 °F 29.93 in South 9.0 mph 22.0 mph 95 % 0.00 in 0.00 W/m2
03:31 48.9 °F 47.2 °F 29.93 in South 14.0 mph 14.0 mph 94 % 0.00 in 0.00 W/m2
03:36 48.9 °F 47.5 °F 29.92 in SSE 13.0 mph 25.0 mph 95 % 0.00 in 0.00 W/m2
03:41 48.9 °F 47.5 °F 29.92 in SSE 5.0 mph 23.0 mph 95 % 0.00 in 0.00 W/m2
03:46 48.9 °F 47.5 °F 29.92 in SE 7.0 mph 7.0 mph 95 % 0.00 in 0.00 W/m2
03:51 48.9 °F 47.2 °F 29.92 in SSE 10.0 mph 28.0 mph 94 % 0.00 in 0.00 W/m2
03:56 48.8 °F 47.2 °F 29.92 in South 15.0 mph 21.0 mph 94 % 0.00 in 0.00 W/m2
04:01 48.8 °F 47.4 °F 29.91 in South 17.0 mph 17.0 mph 95 % 0.00 in 0.00 W/m2
04:06 48.8 °F 47.2 °F 29.91 in SSW 12.0 mph 16.0 mph 94 % 0.00 in 0.00 W/m2
04:11 48.8 °F 47.2 °F 29.91 in ESE 16.0 mph 24.0 mph 94 % 0.00 in 0.00 W/m2
04:16 48.8 °F 47.2 °F 29.91 in SE 2.0 mph 24.0 mph 94 % 0.00 in 0.00 W/m2
04:21 48.8 °F 47.2 °F 29.91 in South 9.0 mph 20.0 mph 94 % 0.00 in 0.00 W/m2
04:26 48.8 °F 47.2 °F 29.91 in SSE 9.0 mph 27.0 mph 94 % 0.00 in 0.00 W/m2
04:31 48.8 °F 47.2 °F 29.90 in SSE 10.0 mph 25.0 mph 94 % 0.00 in 0.00 W/m2
04:36 48.8 °F 47.2 °F 29.90 in SSE 15.0 mph 22.0 mph 94 % 0.00 in 0.00 W/m2
04:41 48.8 °F 47.2 °F 29.91 in SSE 8.0 mph 22.0 mph 94 % 0.00 in 0.00 W/m2
04:46 48.8 °F 47.2 °F 29.91 in SSE 11.0 mph 29.0 mph 94 % 0.00 in 0.00 W/m2
04:51 48.8 °F 47.2 °F 29.90 in SSE 13.0 mph 29.0 mph 94 % 0.00 in 0.00 W/m2
04:56 48.8 °F 47.2 °F 29.90 in SE 20.0 mph 25.0 mph 94 % 0.00 in 0.00 W/m2
05:01 48.7 °F 47.0 °F 29.90 in South 17.0 mph 29.0 mph 94 % 0.00 in 0.00 W/m2
05:06 48.7 °F 47.0 °F 29.89 in SSE 10.0 mph 27.0 mph 94 % 0.00 in 0.00 W/m2
05:11 48.7 °F 47.0 °F 29.90 in SSW 15.0 mph 20.0 mph 94 % 0.00 in 0.00 W/m2
05:16 48.8 °F 47.2 °F 29.90 in SSW 12.0 mph 24.0 mph 94 % 0.00 in 0.00 W/m2
05:21 48.8 °F 47.2 °F 29.90 in South 14.0 mph 16.0 mph 94 % 0.39 in 0.00 W/m2
05:26 48.7 °F 47.0 °F 29.90 in SSE 11.0 mph 11.0 mph 94 % 0.21 in 0.00 W/m2
05:31 48.7 °F 47.0 °F 29.90 in SSE 13.0 mph 13.0 mph 94 % 0.16 in 0.00 W/m2
05:36 48.6 °F 47.0 °F 29.90 in SE 10.0 mph 10.0 mph 94 % 0.15 in 0.00 W/m2
05:41 48.6 °F 47.0 °F 29.89 in SSW 6.0 mph 10.0 mph 94 % 0.21 in 0.00 W/m2
05:46 48.5 °F 46.9 °F 29.89 in SSE 15.0 mph 21.0 mph 94 % 0.34 in 0.00 W/m2
05:51 48.4 °F 46.8 °F 29.88 in South 10.0 mph 10.0 mph 94 % 0.36 in 0.00 W/m2
05:56 48.4 °F 46.8 °F 29.89 in SSE 14.0 mph 16.0 mph 94 % 0.22 in 0.00 W/m2
06:01 48.3 °F 46.7 °F 29.88 in South 7.0 mph 7.0 mph 94 % 0.21 in 0.00 W/m2
06:06 48.3 °F 46.7 °F 29.88 in South 8.0 mph 16.0 mph 94 % 0.35 in 0.00 W/m2
06:11 48.2 °F 46.6 °F 29.89 in SSW 9.0 mph 23.0 mph 94 % 0.23 in 0.00 W/m2
06:16 48.1 °F 46.5 °F 29.89 in SSE 7.0 mph 20.0 mph 94 % 0.19 in 0.00 W/m2
06:21 47.9 °F 46.3 °F 29.88 in South 12.0 mph 20.0 mph 94 % 0.40 in 0.00 W/m2
06:26 47.8 °F 46.2 °F 29.88 in SSE 11.0 mph 11.0 mph 94 % 0.25 in 0.00 W/m2
06:31 47.7 °F 46.1 °F 29.87 in SSE 7.0 mph 7.0 mph 94 % 0.38 in 0.00 W/m2
06:36 47.6 °F 46.0 °F 29.87 in South 5.0 mph 17.0 mph 94 % 0.36 in 0.00 W/m2
06:41 47.5 °F 45.9 °F 29.87 in SSE 7.0 mph 18.0 mph 94 % 0.55 in 0.00 W/m2
06:46 47.5 °F 45.9 °F 29.87 in SSE 8.0 mph 17.0 mph 94 % 0.15 in 0.00 W/m2
06:51 47.4 °F 45.8 °F 29.87 in South 8.0 mph 14.0 mph 94 % 0.24 in 0.00 W/m2
06:56 47.4 °F 45.8 °F 29.87 in SSW 13.0 mph 17.0 mph 94 % 0.27 in 0.00 W/m2
07:01 47.5 °F 45.9 °F 29.87 in SSE 9.0 mph 16.0 mph 94 % 0.27 in 0.00 W/m2
07:06 47.5 °F 45.9 °F 29.86 in South 17.0 mph 20.0 mph 94 % 0.39 in 0.00 W/m2
07:11 47.5 °F 45.9 °F 29.86 in SSE 10.0 mph 23.0 mph 94 % 0.36 in 0.00 W/m2
07:16 47.5 °F 45.9 °F 29.86 in South 6.0 mph 16.0 mph 94 % 0.36 in 0.00 W/m2
07:21 47.6 °F 46.0 °F 29.85 in Calm   15.0 mph 94 % 0.43 in 0.00 W/m2
07:26 47.6 °F 46.0 °F 29.86 in SSW 3.0 mph 14.0 mph 94 % 0.79 in 0.00 W/m2
07:31 47.6 °F 46.0 °F 29.87 in SSW 7.0 mph 7.0 mph 94 % 0.78 in 0.00 W/m2
07:36 47.6 °F 46.0 °F 29.87 in Calm   15.0 mph 94 % 1.65 in 0.00 W/m2
07:41 47.3 °F 45.9 °F 29.87 in SSW 5.0 mph 17.0 mph 95 % 0.42 in 0.00 W/m2
07:46 47.1 °F 45.5 °F 29.88 in SSE 7.0 mph 18.0 mph 94 % 0.21 in 0.00 W/m2
07:51 47.2 °F 45.6 °F 29.89 in SSW 10.0 mph 26.0 mph 94 % 0.12 in 0.00 W/m2
07:56 47.4 °F 45.8 °F 29.89 in SSW 16.0 mph 34.0 mph 94 % 0.19 in 0.00 W/m2
08:01 47.4 °F 45.8 °F 29.90 in SSW 6.0 mph 21.0 mph 94 % 0.50 in 0.00 W/m2
08:06 47.4 °F 45.8 °F 29.90 in SW 13.0 mph 32.0 mph 94 % 0.19 in 0.00 W/m2
08:11 47.4 °F 45.8 °F 29.90 in South 13.0 mph 24.0 mph 94 % 0.10 in 0.00 W/m2
08:16 47.5 °F 45.9 °F 29.90 in South 7.0 mph 26.0 mph 94 % 0.08 in 12.00 W/m2
08:21 47.5 °F 45.9 °F 29.90 in SSW 9.0 mph 19.0 mph 94 % 0.05 in 16.00 W/m2
08:26 47.5 °F 45.9 °F 29.91 in South 10.0 mph 22.0 mph 94 % 0.05 in 0.00 W/m2
08:31 47.5 °F 45.9 °F 29.91 in South 12.0 mph 24.0 mph 94 % 0.05 in 0.00 W/m2
08:36 47.5 °F 45.9 °F 29.91 in SSE 7.0 mph 26.0 mph 94 % 0.06 in 0.00 W/m2
08:41 47.5 °F 45.9 °F 29.91 in SSW 9.0 mph 14.0 mph 94 % 0.30 in 9.00 W/m2
08:46 47.5 °F 45.9 °F 29.90 in SSW 9.0 mph 17.0 mph 94 % 0.15 in 18.00 W/m2
08:51 47.4 °F 45.8 °F 29.90 in SE 4.0 mph 14.0 mph 94 % 0.08 in 11.00 W/m2
08:56 47.4 °F 45.8 °F 29.91 in South 8.0 mph 14.0 mph 94 % 0.30 in 11.00 W/m2
09:01 47.4 °F 45.8 °F 29.90 in South 9.0 mph 13.0 mph 94 % 0.45 in 19.00 W/m2
09:06 47.3 °F 45.7 °F 29.91 in SSE 7.0 mph 11.0 mph 94 % 0.38 in 40.00 W/m2
09:11 47.3 °F 45.7 °F 29.90 in South 9.0 mph 20.0 mph 94 % 0.17 in 39.00 W/m2
09:16 47.3 °F 45.7 °F 29.90 in South 15.0 mph 18.0 mph 94 % 0.07 in 12.00 W/m2
09:21 47.3 °F 45.7 °F 29.90 in Calm   23.0 mph 94 % 0.07 in 21.00 W/m2
09:26 47.4 °F 45.8 °F 29.91 in SSE 15.0 mph 22.0 mph 94 % 0.41 in 47.00 W/m2
09:31 47.4 °F 45.8 °F 29.91 in SSW 11.0 mph 19.0 mph 94 % 0.12 in 79.00 W/m2
09:36 47.6 °F 46.0 °F 29.91 in SSW 11.0 mph 24.0 mph 94 % 0.10 in 32.00 W/m2
09:41 47.7 °F 46.1 °F 29.92 in WSW 8.0 mph 24.0 mph 94 % 0.07 in 26.00 W/m2
09:46 47.8 °F 46.2 °F 29.92 in SSW 16.0 mph 31.0 mph 94 % 0.04 in 28.00 W/m2
09:51 47.9 °F 46.3 °F 29.92 in SSW 6.0 mph 25.0 mph 94 % 0.41 in 25.00 W/m2
09:56 48.0 °F 46.6 °F 29.93 in SSW 12.0 mph 25.0 mph 95 % 0.16 in 39.00 W/m2
10:01 48.1 °F 46.7 °F 29.93 in SSW 18.0 mph 23.0 mph 95 % 0.07 in 28.00 W/m2
10:06 48.0 °F 46.6 °F 29.94 in SSW 13.0 mph 22.0 mph 95 % 0.04 in 14.00 W/m2
10:11 48.0 °F 46.6 °F 29.94 in WSW 27.0 mph 34.0 mph 95 % 0.00 in 14.00 W/m2
10:16 47.8 °F 46.2 °F 29.95 in WSW 9.0 mph 25.0 mph 94 % 0.14 in 19.00 W/m2
10:21 47.7 °F 46.1 °F 29.96 in SW 8.0 mph 32.0 mph 94 % 0.06 in 46.00 W/m2
10:26 47.5 °F 46.1 °F 29.97 in SW 21.0 mph 23.0 mph 95 % 0.04 in 141.00 W/m2
10:31 47.0 °F 45.4 °F 29.97 in WSW 12.0 mph 26.0 mph 94 % 0.00 in 178.00 W/m2
10:36 46.8 °F 45.5 °F 29.98 in SW 10.0 mph 24.0 mph 95 % 0.00 in 158.00 W/m2
10:41 46.6 °F 45.0 °F 29.98 in SW 15.0 mph 20.0 mph 94 % 0.00 in 90.00 W/m2
10:46 46.5 °F 44.9 °F 29.98 in Calm   23.0 mph 94 % 0.00 in 146.00 W/m2
10:51 46.6 °F 45.0 °F 29.98 in South 12.0 mph 24.0 mph 94 % 0.00 in 183.00 W/m2
10:56 46.6 °F 45.0 °F 29.98 in WSW 12.0 mph 23.0 mph 94 % 0.00 in 98.00 W/m2
11:01 46.7 °F 45.1 °F 29.98 in Calm   14.0 mph 94 % 0.00 in 98.00 W/m2
11:06 46.7 °F 45.1 °F 29.98 in South 7.0 mph 17.0 mph 94 % 0.00 in 109.00 W/m2
11:11 46.8 °F 45.5 °F 29.99 in SSW 8.0 mph 28.0 mph 95 % 0.00 in 149.00 W/m2
11:16 46.8 °F 45.5 °F 29.98 in SSW 14.0 mph 21.0 mph 95 % 0.00 in 121.00 W/m2
11:21 46.7 °F 45.3 °F 29.98 in SSE 13.0 mph 16.0 mph 95 % 0.00 in 114.00 W/m2
11:26 46.7 °F 45.1 °F 29.98 in Calm   16.0 mph 94 % 0.00 in 214.00 W/m2
11:31 46.7 °F 45.3 °F 29.98 in SSW 6.0 mph 17.0 mph 95 % 0.00 in 70.00 W/m2
11:36 46.8 °F 45.2 °F 29.98 in South 6.0 mph 13.0 mph 94 % 0.00 in 37.00 W/m2
11:41 46.7 °F 45.1 °F 29.98 in SSW 3.0 mph 13.0 mph 94 % 0.00 in 39.00 W/m2
11:46 46.7 °F 45.1 °F 29.98 in SSE 5.0 mph 16.0 mph 94 % 0.00 in 72.00 W/m2
11:51 46.7 °F 45.3 °F 29.98 in SSE 2.0 mph 13.0 mph 95 % 0.00 in 169.00 W/m2
11:56 46.8 °F 45.5 °F 29.98 in SSW 6.0 mph 12.0 mph 95 % 0.00 in 54.00 W/m2
12:01 46.9 °F 45.5 °F 29.97 in Calm   14.0 mph 95 % 0.00 in 60.00 W/m2
12:06 46.9 °F 45.5 °F 29.97 in SW 4.0 mph 12.0 mph 95 % 0.00 in 49.00 W/m2
12:11 46.9 °F 45.5 °F 29.97 in Calm   15.0 mph 95 % 0.00 in 25.00 W/m2
12:16 46.9 °F 45.5 °F 29.97 in Calm   15.0 mph 95 % 0.00 in 39.00 W/m2
12:21 46.9 °F 45.5 °F 29.97 in SSW 12.0 mph 18.0 mph 95 % 0.00 in 46.00 W/m2
12:26 46.9 °F 45.5 °F 29.96 in SSW 4.0 mph 15.0 mph 95 % 0.00 in 116.00 W/m2
12:31 46.9 °F 45.5 °F 29.96 in SSW 12.0 mph 20.0 mph 95 % 0.00 in 95.00 W/m2
12:36 46.9 °F 45.5 °F 29.96 in SSW 10.0 mph 13.0 mph 95 % 0.00 in 46.00 W/m2
12:41 47.0 °F 45.7 °F 29.96 in South 12.0 mph 14.0 mph 95 % 0.00 in 46.00 W/m2
12:46 47.0 °F 45.7 °F 29.95 in SSW 9.0 mph 13.0 mph 95 % 0.00 in 25.00 W/m2
12:51 46.9 °F 45.5 °F 29.95 in SSW 7.0 mph 18.0 mph 95 % 0.00 in 46.00 W/m2
12:56 46.8 °F 45.5 °F 29.95 in SSE 11.0 mph 17.0 mph 95 % 0.00 in 107.00 W/m2
13:01 46.6 °F 45.0 °F 29.94 in South 11.0 mph 15.0 mph 94 % 0.00 in 88.00 W/m2
13:06 46.5 °F 44.9 °F 29.94 in South 9.0 mph 21.0 mph 94 % 0.00 in 116.00 W/m2
13:11 46.5 °F 44.9 °F 29.94 in South 14.0 mph 17.0 mph 94 % 0.00 in 72.00 W/m2
13:16 46.5 °F 44.9 °F 29.94 in SSE 6.0 mph 6.0 mph 94 % 0.00 in 51.00 W/m2
13:21 46.5 °F 44.9 °F 29.94 in SSE 8.0 mph 9.0 mph 94 % 0.00 in 67.00 W/m2
13:26 46.5 °F 44.9 °F 29.94 in South 9.0 mph 19.0 mph 94 % 0.00 in 105.00 W/m2
13:31 46.5 °F 44.9 °F 29.94 in SSE 7.0 mph 19.0 mph 94 % 0.00 in 51.00 W/m2
13:36 46.6 °F 45.0 °F 29.94 in South 8.0 mph 13.0 mph 94 % 0.00 in 56.00 W/m2
13:41 46.7 °F 45.1 °F 29.94 in South 7.0 mph 17.0 mph 94 % 0.00 in 88.00 W/m2
13:46 46.8 °F 45.5 °F 29.93 in South 9.0 mph 15.0 mph 95 % 0.00 in 60.00 W/m2
13:51 46.9 °F 45.5 °F 29.94 in SE 4.0 mph 16.0 mph 95 % 0.00 in 35.00 W/m2
13:56 46.9 °F 45.5 °F 29.93 in SSW 7.0 mph 11.0 mph 95 % 0.00 in 42.00 W/m2
14:01 46.9 °F 45.5 °F 29.93 in SSE 11.0 mph 11.0 mph 95 % 0.00 in 32.00 W/m2
14:06 46.9 °F 45.5 °F 29.93 in South 16.0 mph 18.0 mph 95 % 0.00 in 23.00 W/m2
14:11 46.9 °F 45.5 °F 29.93 in South 11.0 mph 19.0 mph 95 % 0.18 in 47.00 W/m2
14:16 46.9 °F 45.5 °F 29.93 in SW 18.0 mph 18.0 mph 95 % 0.15 in 23.00 W/m2
14:21 46.8 °F 45.5 °F 29.93 in SSW 11.0 mph 23.0 mph 95 % 0.09 in 81.00 W/m2
14:26 46.7 °F 45.1 °F 29.93 in SSW 13.0 mph 13.0 mph 94 % 0.05 in 58.00 W/m2
14:31 46.6 °F 45.0 °F 29.93 in SSW 8.0 mph 8.0 mph 94 % 0.04 in 62.00 W/m2
14:36 46.6 °F 45.0 °F 29.93 in South 6.0 mph 15.0 mph 94 % 0.00 in 53.00 W/m2
14:41 46.6 °F 45.0 °F 29.93 in Calm   17.0 mph 94 % 0.00 in 51.00 W/m2
14:46 46.6 °F 45.0 °F 29.93 in South 6.0 mph 7.0 mph 94 % 0.00 in 26.00 W/m2
14:51 46.6 °F 45.0 °F 29.94 in SW 2.0 mph 11.0 mph 94 % 0.20 in 21.00 W/m2
14:56 46.7 °F 45.1 °F 29.93 in South 8.0 mph 13.0 mph 94 % 0.13 in 33.00 W/m2
15:01 46.7 °F 45.1 °F 29.93 in South 9.0 mph 14.0 mph 94 % 0.08 in 12.00 W/m2
15:06 46.8 °F 45.5 °F 29.94 in SSW 12.0 mph 19.0 mph 95 % 0.08 in 26.00 W/m2
15:11 46.9 °F 45.5 °F 29.94 in SSW 5.0 mph 15.0 mph 95 % 0.20 in 16.00 W/m2
15:16 47.0 °F 45.7 °F 29.93 in Calm   14.0 mph 95 % 0.17 in 16.00 W/m2
15:21 47.0 °F 45.7 °F 29.93 in SW 4.0 mph 11.0 mph 95 % 0.19 in 42.00 W/m2
15:26 47.0 °F 45.4 °F 29.93 in WSW 1.0 mph 11.0 mph 94 % 0.43 in 35.00 W/m2
15:31 47.1 °F 45.5 °F 29.94 in West 6.0 mph 14.0 mph 94 % 0.18 in 30.00 W/m2
15:36 47.0 °F 45.7 °F 29.94 in West 9.0 mph 9.0 mph 95 % 0.10 in 46.00 W/m2
15:41 47.0 °F 45.7 °F 29.94 in SW 15.0 mph 21.0 mph 95 % 0.09 in 69.00 W/m2
15:46 47.1 °F 45.5 °F 29.95 in SSW 9.0 mph 16.0 mph 94 % 0.05 in 23.00 W/m2
15:51 47.0 °F 45.7 °F 29.94 in SW 13.0 mph 19.0 mph 95 % 0.00 in 7.00 W/m2
15:56 47.0 °F 45.7 °F 29.94 in SSW 6.0 mph 15.0 mph 95 % 0.00 in 21.00 W/m2
16:01 47.1 °F 45.5 °F 29.94 in South 5.0 mph 5.0 mph 94 % 0.00 in 9.00 W/m2
16:06 47.1 °F 45.5 °F 29.94 in South 7.0 mph 7.0 mph 94 % 0.08 in 5.00 W/m2
16:11 47.1 °F 45.5 °F 29.94 in SW 10.0 mph 22.0 mph 94 % 0.14 in 11.00 W/m2
16:16 47.1 °F 45.7 °F 29.94 in SSE 10.0 mph 17.0 mph 95 % 0.12 in 9.00 W/m2
16:21 47.0 °F 45.7 °F 29.95 in WSW 9.0 mph 9.0 mph 95 % 0.07 in 9.00 W/m2
16:26 46.9 °F 45.5 °F 29.95 in WSW 8.0 mph 9.0 mph 95 % 0.07 in 7.00 W/m2
16:31 46.9 °F 45.5 °F 29.95 in South 13.0 mph 27.0 mph 95 % 0.18 in 12.00 W/m2
16:36 46.9 °F 45.5 °F 29.96 in Calm   22.0 mph 95 % 0.19 in 12.00 W/m2
16:41 46.9 °F 45.5 °F 29.96 in SE 10.0 mph 16.0 mph 95 % 0.37 in 0.00 W/m2
16:46 46.9 °F 45.5 °F 29.96 in South 8.0 mph 12.0 mph 95 % 0.26 in 7.00 W/m2
16:51 46.9 °F 45.5 °F 29.96 in SSW 10.0 mph 12.0 mph 95 % 0.46 in 9.00 W/m2
16:56 46.8 °F 45.5 °F 29.96 in South 15.0 mph 24.0 mph 95 % 0.17 in 14.00 W/m2
17:01 46.7 °F 45.1 °F 29.96 in South 11.0 mph 24.0 mph 94 % 0.27 in 0.00 W/m2
17:06 46.7 °F 45.1 °F 29.97 in WSW 6.0 mph 26.0 mph 94 % 0.09 in 5.00 W/m2
17:11 46.7 °F 45.1 °F 29.97 in Calm   20.0 mph 94 % 0.34 in 7.00 W/m2
17:16 46.7 °F 45.1 °F 29.97 in SW 6.0 mph 23.0 mph 94 % 0.09 in 0.00 W/m2
17:21 46.7 °F 45.1 °F 29.98 in SSW 2.0 mph 2.0 mph 94 % 0.28 in 0.00 W/m2
17:26 46.7 °F 45.1 °F 29.98 in South 5.0 mph 5.0 mph 94 % 0.08 in 0.00 W/m2
17:31 46.7 °F 45.1 °F 29.98 in SW 7.0 mph 12.0 mph 94 % 0.05 in 0.00 W/m2
17:36 46.7 °F 45.1 °F 29.98 in South 10.0 mph 13.0 mph 94 % 0.29 in 0.00 W/m2
17:41 46.7 °F 45.1 °F 29.99 in South 11.0 mph 11.0 mph 94 % 0.08 in 0.00 W/m2
17:46 46.7 °F 45.1 °F 29.99 in SW 11.0 mph 11.0 mph 94 % 0.05 in 0.00 W/m2
17:51 46.7 °F 45.1 °F 29.99 in SW 13.0 mph 13.0 mph 94 % 0.00 in 0.00 W/m2
17:56 46.7 °F 45.1 °F 29.99 in South 11.0 mph 21.0 mph 94 % 0.00 in 0.00 W/m2
18:01 46.6 °F 45.0 °F 29.99 in SSW 13.0 mph 18.0 mph 94 % 0.00 in 0.00 W/m2
18:06 46.6 °F 45.0 °F 29.99 in SSE 6.0 mph 20.0 mph 94 % 0.00 in 0.00 W/m2
18:11 46.5 °F 44.9 °F 29.99 in SSW 5.0 mph 20.0 mph 94 % 0.58 in 0.00 W/m2
18:16 46.5 °F 45.2 °F 30.00 in South 6.0 mph 15.0 mph 95 % 0.15 in 0.00 W/m2
18:21 46.5 °F 45.2 °F 30.00 in SSW 9.0 mph 22.0 mph 95 % 0.08 in 0.00 W/m2
18:26 46.5 °F 45.2 °F 30.00 in South 13.0 mph 20.0 mph 95 % 0.08 in 0.00 W/m2
18:31 46.5 °F 45.2 °F 30.00 in SSE 1.0 mph 22.0 mph 95 % 0.05 in 0.00 W/m2
18:36 46.5 °F 45.2 °F 30.00 in SSW 5.0 mph 23.0 mph 95 % 0.04 in 0.00 W/m2
18:41 46.5 °F 45.2 °F 30.00 in South 6.0 mph 23.0 mph 95 % 0.13 in 0.00 W/m2
18:46 46.5 °F 45.2 °F 30.00 in South 14.0 mph 17.0 mph 95 % 0.20 in 0.00 W/m2
18:51 46.5 °F 45.2 °F 30.00 in SSE 7.0 mph 18.0 mph 95 % 0.08 in 0.00 W/m2
18:56 46.5 °F 45.2 °F 30.00 in South 4.0 mph 22.0 mph 95 % 0.40 in 0.00 W/m2
19:01 46.5 °F 45.2 °F 30.00 in SSW 8.0 mph 19.0 mph 95 % 0.38 in 0.00 W/m2
19:06 46.5 °F 45.2 °F 30.00 in SSE 9.0 mph 23.0 mph 95 % 0.14 in 0.00 W/m2
19:11 46.5 °F 45.2 °F 30.01 in SW 10.0 mph 21.0 mph 95 % 0.08 in 0.00 W/m2
19:16 46.5 °F 45.2 °F 30.01 in SSW 11.0 mph 23.0 mph 95 % 0.34 in 0.00 W/m2
19:21 46.5 °F 45.2 °F 30.01 in South 13.0 mph 21.0 mph 95 % 0.12 in 0.00 W/m2
19:26 46.5 °F 45.2 °F 30.01 in SSW 15.0 mph 18.0 mph 95 % 0.09 in 0.00 W/m2
19:31 46.5 °F 45.2 °F 30.02 in SSW 12.0 mph 21.0 mph 95 % 0.17 in 0.00 W/m2
19:36 46.5 °F 45.2 °F 30.02 in SSW 4.0 mph 19.0 mph 95 % 0.16 in 0.00 W/m2
19:41 46.5 °F 45.2 °F 30.02 in SSE 7.0 mph 21.0 mph 95 % 0.08 in 0.00 W/m2
19:46 46.5 °F 45.2 °F 30.02 in SSE 10.0 mph 18.0 mph 95 % 0.07 in 0.00 W/m2
19:51 46.6 °F 45.2 °F 30.03 in SSW 5.0 mph 24.0 mph 95 % 0.08 in 0.00 W/m2
19:56 46.5 °F 45.2 °F 30.02 in South 17.0 mph 24.0 mph 95 % 0.09 in 0.00 W/m2
20:01 46.5 °F 45.2 °F 30.03 in SW 12.0 mph 23.0 mph 95 % 0.09 in 0.00 W/m2
20:06 46.5 °F 45.2 °F 30.03 in SSW 17.0 mph 25.0 mph 95 % 0.06 in 0.00 W/m2
20:11 46.4 °F 45.0 °F 30.03 in SSE 16.0 mph 28.0 mph 95 % 0.04 in 0.00 W/m2
20:16 46.5 °F 45.2 °F 30.04 in Calm     95 % 0.00 in 0.00 W/m2
20:21 46.5 °F 45.2 °F 30.04 in South 5.0 mph 5.0 mph 95 % 0.00 in 0.00 W/m2
20:26 46.5 °F 45.2 °F 30.04 in SSW 19.0 mph 19.0 mph 95 % 0.00 in 0.00 W/m2
20:31 46.5 °F 45.2 °F 30.05 in WSW 3.0 mph 4.0 mph 95 % 0.00 in 0.00 W/m2
20:36 46.5 °F 45.2 °F 30.05 in South 23.0 mph 24.0 mph 95 % 0.00 in 0.00 W/m2
20:41 46.5 °F 45.2 °F 30.05 in South 14.0 mph 24.0 mph 95 % 0.00 in 0.00 W/m2
20:46 46.5 °F 45.2 °F 30.05 in SW 6.0 mph 20.0 mph 95 % 0.00 in 0.00 W/m2
20:51 46.5 °F 45.2 °F 30.06 in South 3.0 mph 18.0 mph 95 % 0.00 in 0.00 W/m2
20:56 46.5 °F 45.2 °F 30.06 in SSE 10.0 mph 19.0 mph 95 % 0.00 in 0.00 W/m2
21:01 46.5 °F 45.2 °F 30.06 in SSW 9.0 mph 9.0 mph 95 % 0.00 in 0.00 W/m2
21:06 46.5 °F 45.2 °F 30.06 in SW 9.0 mph 14.0 mph 95 % 0.00 in 0.00 W/m2
21:11 46.5 °F 45.2 °F 30.07 in South 14.0 mph 27.0 mph 95 % 0.00 in 0.00 W/m2
21:16 46.5 °F 45.2 °F 30.07 in SSW 4.0 mph 15.0 mph 95 % 0.00 in 0.00 W/m2
21:21 46.5 °F 45.2 °F 30.07 in SSE 16.0 mph 19.0 mph 95 % 0.00 in 0.00 W/m2
21:26 46.5 °F 45.2 °F 30.07 in SW 4.0 mph 18.0 mph 95 % 0.00 in 0.00 W/m2
21:31 46.5 °F 45.2 °F 30.07 in SSE 11.0 mph 15.0 mph 95 % 0.00 in 0.00 W/m2
21:36 46.5 °F 45.2 °F 30.07 in South 11.0 mph 20.0 mph 95 % 0.00 in 0.00 W/m2
21:41 46.5 °F 45.2 °F 30.08 in SSW 11.0 mph 12.0 mph 95 % 0.00 in 0.00 W/m2
21:46 46.5 °F 45.2 °F 30.08 in SSW 10.0 mph 17.0 mph 95 % 0.00 in 0.00 W/m2
21:51 46.4 °F 45.0 °F 30.08 in South 10.0 mph 20.0 mph 95 % 0.00 in 0.00 W/m2
21:56 46.4 °F 45.0 °F 30.08 in SSW 4.0 mph 17.0 mph 95 % 0.00 in 0.00 W/m2
22:01 46.4 °F 45.0 °F 30.08 in South 15.0 mph 17.0 mph 95 % 0.00 in 0.00 W/m2
22:06 46.4 °F 45.0 °F 30.08 in SSW 8.0 mph 21.0 mph 95 % 0.00 in 0.00 W/m2
22:11 46.4 °F 45.0 °F 30.08 in SSW 10.0 mph 18.0 mph 95 % 0.00 in 0.00 W/m2
22:16 46.4 °F 45.0 °F 30.08 in SSW 6.0 mph 6.0 mph 95 % 0.00 in 0.00 W/m2
22:21 46.3 °F 45.0 °F 30.09 in SSW 10.0 mph 15.0 mph 95 % 0.00 in 0.00 W/m2
22:26 46.3 °F 45.0 °F 30.08 in South 10.0 mph 17.0 mph 95 % 0.00 in 0.00 W/m2
22:31 46.3 °F 45.0 °F 30.09 in SSW 6.0 mph 18.0 mph 95 % 0.00 in 0.00 W/m2
22:36 46.3 °F 45.0 °F 30.09 in SSE 10.0 mph 14.0 mph 95 % 0.00 in 0.00 W/m2
22:41 46.3 °F 45.0 °F 30.09 in SSW 3.0 mph 19.0 mph 95 % 0.00 in 0.00 W/m2
22:46 46.3 °F 45.0 °F 30.10 in SSE 11.0 mph 18.0 mph 95 % 0.00 in 0.00 W/m2
22:51 46.2 °F 44.8 °F 30.10 in South 10.0 mph 16.0 mph 95 % 0.00 in 0.00 W/m2
22:56 46.2 °F 44.8 °F 30.10 in SSW 10.0 mph 17.0 mph 95 % 0.00 in 0.00 W/m2
23:01 46.1 °F 44.8 °F 30.10 in South 8.0 mph 16.0 mph 95 % 0.00 in 0.00 W/m2
23:06 46.1 °F 44.8 °F 30.10 in Calm   13.0 mph 95 % 0.00 in 0.00 W/m2
23:11 46.1 °F 44.8 °F 30.10 in South 6.0 mph 15.0 mph 95 % 0.00 in 0.00 W/m2
23:16 46.1 °F 44.8 °F 30.10 in South 11.0 mph 16.0 mph 95 % 0.00 in 0.00 W/m2
23:21 46.1 °F 44.8 °F 30.10 in South 9.0 mph 9.0 mph 95 % 0.00 in 0.00 W/m2
23:26 46.1 °F 44.8 °F 30.10 in SSW 9.0 mph 14.0 mph 95 % 0.00 in 0.00 W/m2
23:31 46.1 °F 44.8 °F 30.10 in South 8.0 mph 17.0 mph 95 % 0.00 in 0.00 W/m2
23:36 46.0 °F 44.7 °F 30.10 in SSW 10.0 mph 15.0 mph 95 % 0.00 in 0.00 W/m2
23:41 46.1 °F 44.8 °F 30.10 in SE 4.0 mph 15.0 mph 95 % 0.00 in 0.00 W/m2
23:46 46.1 °F 44.8 °F 30.10 in SSE 7.0 mph 14.0 mph 95 % 0.00 in 0.00 W/m2
23:51 46.1 °F 44.8 °F 30.10 in SSW 12.0 mph 14.0 mph 95 % 0.00 in 0.00 W/m2
23:56 46.1 °F 44.8 °F 30.11 in South 7.0 mph 13.0 mph 95 % 0.00 in 0.00 W/m2
Juneau County Weather
Compliments of Weather Underground - 4.5 mb
 WU-history PHP script courtesy of   Juneau County Weather.
powered by Cumulus v1.9.3 (1059)
Ambient Weather VWS v14.00
Top Contact Website Map Copyright © 2007 - 2018 Foresthillweather.com Never base important decisions on this or any weather information obtained from the Internet